MSC Bettina — HPFG — position and weather

sailwx.info

Track history (hours):
 
Tides and Currents Weather Stations Pressure Air Temp Water Temp Dewpoint Dewpoint Depression Visibility Wind Speed Wind Dir Waves Ship Positions

MSC Bettina

Last reported at 2014-Aug-26 05:26 UTC. Time now 2014-Aug-31 04:38 UTC.
Position N 30°19' E 032°23'.

Length 366 m; draft 12.9 m.

Type: Ship (hazmat cat A). MMSI: 352361000.

Date/timePositionNaut miles runAvg speedWind from/ knotsBaromVisibWave heightAir tempDewpointWater temp
2014-Aug-26 05:26N 30°19' E 032°23'12 3.8
2014-Aug-26 02:15N 30°31' E 032°20'5 8.0
2014-Aug-26 01:33N 30°36' E 032°19'8 7.8
2014-Aug-26 00:33N 30°44' E 032°20'9 8.8
2014-Aug-25 23:33N 30°52' E 032°19'9 8.9
2014-Aug-25 22:33N 31°01' E 032°19'7 7.4
2014-Aug-25 21:33N 31°09' E 032°19'8 8.4
2014-Aug-25 20:33N 31°17' E 032°22'9 9.3
2014-Aug-25 19:33N 31°26' E 032°20'3 2.8
2014-Aug-25 18:31N 31°25' E 032°17'0 0.0
2014-Aug-25 17:31N 31°25' E 032°17'0 0.0
2014-Aug-25 16:31N 31°25' E 032°17'0 0.1
2014-Aug-25 15:34N 31°25' E 032°17'8 7.7
2014-Aug-25 14:33N 31°31' E 032°13'1515.3
2014-Aug-25 13:34N 31°42' E 032°00'1918.9
2014-Aug-25 12:34N 31°52' E 031°41'1818.4
2014-Aug-25 11:33N 31°59' E 031°21'1918.6
2014-Aug-25 10:33N 32°07' E 031°01'2018.4
2014-Aug-25 09:27N 32°15' E 030°39'1718.4
2014-Aug-25 08:32N 32°22' E 030°21'1918.4
2014-Aug-25 07:31N 32°30' E 030°01'1818.5
2014-Aug-25 06:34N 32°37' E 029°42'1818.3
2014-Aug-25 05:34N 32°45' E 029°22'2018.1
2014-Aug-25 04:27N 32°53' E 029°00'1618.3
2014-Aug-25 03:33N 33°00' E 028°42'2118.3
2014-Aug-25 02:23N 33°09' E 028°19'1918.5
2014-Aug-25 01:23N 33°16' E 027°59'1518.1
2014-Aug-25 00:34N 33°23' E 027°43'1818.2
2014-Aug-24 23:33N 33°30' E 027°23'1918.9
2014-Aug-24 22:33N 33°38' E 027°02'2618.6
2014-Aug-24 21:09N 33°49' E 026°34'1118.4
2014-Aug-24 20:33N 33°53' E 026°21'18618.5
2014-Aug-24 10:32N 35°10' E 022°56'1818.6
2014-Aug-24 09:34N 35°17' E 022°36'2418.8
2014-Aug-24 08:17N 35°27' E 022°09'1418.8
2014-Aug-24 07:31N 35°32' E 021°53'  
2014-Aug-21 18:33N 38°20' E 015°11'3718.0
2014-Aug-21 16:29N 38°19' E 014°24'1617.9
2014-Aug-21 15:33N 38°22' E 014°03'1818.1
2014-Aug-21 14:33N 38°23' E 013°40'1818.2
2014-Aug-21 13:33N 38°27' E 013°17'1818.0
2014-Aug-21 12:33N 38°27' E 012°54'2118.2
2014-Aug-21 11:24N 38°26' E 012°27'9018.6
2014-Aug-21 06:33N 38°10' E 010°34'1918.7
2014-Aug-21 05:33N 38°07' E 010°11'1918.8
2014-Aug-21 04:33N 38°03' E 009°47'1918.5
2014-Aug-21 03:32N 38°00' E 009°24'1818.4
2014-Aug-21 02:33N 37°57' E 009°01'1918.5
2014-Aug-21 01:33N 37°53' E 008°38'15418.7
2014-Aug-20 17:20N 37°27' E 005°26'3518.3
2014-Aug-20 15:26N 37°21' E 004°43'1618.4
2014-Aug-20 14:32N 37°18' E 004°23'2418.7
2014-Aug-20 13:15N 37°13' E 003°53'10918.6
2014-Aug-20 07:24N 36°55' E 001°39'1818.8
2014-Aug-20 06:27N 36°52' E 001°17'1819.8
2014-Aug-20 05:31N 36°48' E 000°54'1919.4
2014-Aug-20 04:32N 36°45' E 000°31'1919.5
2014-Aug-20 03:32N 36°42' E 000°07'2520.4
2014-Aug-20 02:18N 36°37' W 000°24'1520.0
2014-Aug-20 01:33N 36°35' W 000°43'2820.1
2014-Aug-20 00:08N 36°29' W 001°17'1219.8
2014-Aug-19 23:33N 36°27' W 001°32'5819.4
2014-Aug-19 20:33N 36°17' W 002°43'12019.8
2014-Aug-19 14:28N 35°59' W 005°10'8320.3
2014-Aug-19 10:22N 36°01' W 006°52'1619.8
2014-Aug-19 09:33N 36°05' W 007°12'2020.0
2014-Aug-19 08:33N 36°10' W 007°36'1919.3
2014-Aug-19 07:33N 36°16' W 007°59'2019.7
2014-Aug-19 06:33N 36°21' W 008°22'2019.7
2014-Aug-19 05:33N 36°27' W 008°45'2120.4
2014-Aug-19 04:32N 36°32' W 009°10'1919.0
2014-Aug-19 03:33N 36°44' W 009°28'2019.8
2014-Aug-19 02:33N 37°03' W 009°37'2020.3
2014-Aug-19 01:33N 37°22' W 009°43'4420.3
2014-Aug-18 23:25N 38°05' W 009°56'4019.9
2014-Aug-18 21:24N 38°44' W 010°07'1820.1
2014-Aug-18 20:30N 39°02' W 010°06'76517.3
2014-Aug-17 00:22N 50°15' W 001°33'6416.6
2014-Aug-16 20:31N 50°31' E 000°05'1718.3
2014-Aug-16 19:33N 50°35' E 000°31'1817.8
2014-Aug-16 18:33N 50°44' E 000°55'1717.1
2014-Aug-16 17:33N 50°54' E 001°17'1615.7
2014-Aug-16 16:34N 51°06' E 001°34'1615.5
2014-Aug-16 15:33N 51°18' E 001°50'1616.2
2014-Aug-16 14:33N 51°31' E 002°04'1817.9
2014-Aug-16 13:33N 51°45' E 002°23'2018.4
2014-Aug-16 12:27N 51°59' E 002°47'2017.6
2014-Aug-16 11:20N 52°03' E 003°18'1417.5
2014-Aug-16 10:33N 52°03' E 003°40'1111.3
2014-Aug-16 09:33N 52°01' E 003°58'5 4.5
2014-Aug-16 08:32N 51°58' E 004°04'0 0.0
2014-Aug-16 07:32N 51°58' E 004°04'0 0.0
2014-Aug-16 06:29N 51°58' E 004°04'0 0.0
2014-Aug-16 05:32N 51°58' E 004°04'  
Track history (hours):
 
Tides and Currents Weather Stations Pressure Air Temp Water Temp Dewpoint Dewpoint Depression Visibility Wind Speed Wind Dir Waves Ship Positions

MSC Bettina

Last reported at 2014-Aug-26 05:26 UTC. Time now 2014-Aug-31 04:38 UTC.
Position N 30°19' E 032°23'.

Length 366 m; draft 12.9 m.

Type: Ship (hazmat cat A). MMSI: 352361000.

Date/timePositionNaut miles runAvg speedWind from/ knotsBaromVisibWave heightAir tempDewpointWater temp
2014-Aug-26 05:26N 30°19' E 032°23'12 3.8
2014-Aug-26 02:15N 30°31' E 032°20'5 8.0
2014-Aug-26 01:33N 30°36' E 032°19'8 7.8
2014-Aug-26 00:33N 30°44' E 032°20'9 8.8
2014-Aug-25 23:33N 30°52' E 032°19'9 8.9
2014-Aug-25 22:33N 31°01' E 032°19'7 7.4
2014-Aug-25 21:33N 31°09' E 032°19'8 8.4
2014-Aug-25 20:33N 31°17' E 032°22'9 9.3
2014-Aug-25 19:33N 31°26' E 032°20'3 2.8
2014-Aug-25 18:31N 31°25' E 032°17'0 0.0
2014-Aug-25 17:31N 31°25' E 032°17'0 0.0
2014-Aug-25 16:31N 31°25' E 032°17'0 0.1
2014-Aug-25 15:34N 31°25' E 032°17'8 7.7
2014-Aug-25 14:33N 31°31' E 032°13'1515.3
2014-Aug-25 13:34N 31°42' E 032°00'1918.9
2014-Aug-25 12:34N 31°52' E 031°41'1818.4
2014-Aug-25 11:33N 31°59' E 031°21'1918.6
2014-Aug-25 10:33N 32°07' E 031°01'2018.4
2014-Aug-25 09:27N 32°15' E 030°39'1718.4
2014-Aug-25 08:32N 32°22' E 030°21'1918.4
2014-Aug-25 07:31N 32°30' E 030°01'1818.5
2014-Aug-25 06:34N 32°37' E 029°42'1818.3
2014-Aug-25 05:34N 32°45' E 029°22'2018.1
2014-Aug-25 04:27N 32°53' E 029°00'1618.3
2014-Aug-25 03:33N 33°00' E 028°42'2118.3
2014-Aug-25 02:23N 33°09' E 028°19'1918.5
2014-Aug-25 01:23N 33°16' E 027°59'1518.1
2014-Aug-25 00:34N 33°23' E 027°43'1818.2
2014-Aug-24 23:33N 33°30' E 027°23'1918.9
2014-Aug-24 22:33N 33°38' E 027°02'2618.6
2014-Aug-24 21:09N 33°49' E 026°34'1118.4
2014-Aug-24 20:33N 33°53' E 026°21'18618.5
2014-Aug-24 10:32N 35°10' E 022°56'1818.6
2014-Aug-24 09:34N 35°17' E 022°36'2418.8
2014-Aug-24 08:17N 35°27' E 022°09'1418.8
2014-Aug-24 07:31N 35°32' E 021°53'  
2014-Aug-21 18:33N 38°20' E 015°11'3718.0
2014-Aug-21 16:29N 38°19' E 014°24'1617.9
2014-Aug-21 15:33N 38°22' E 014°03'1818.1
2014-Aug-21 14:33N 38°23' E 013°40'1818.2
2014-Aug-21 13:33N 38°27' E 013°17'1818.0
2014-Aug-21 12:33N 38°27' E 012°54'2118.2
2014-Aug-21 11:24N 38°26' E 012°27'9018.6
2014-Aug-21 06:33N 38°10' E 010°34'1918.7
2014-Aug-21 05:33N 38°07' E 010°11'1918.8
2014-Aug-21 04:33N 38°03' E 009°47'1918.5
2014-Aug-21 03:32N 38°00' E 009°24'1818.4
2014-Aug-21 02:33N 37°57' E 009°01'1918.5
2014-Aug-21 01:33N 37°53' E 008°38'15418.7
2014-Aug-20 17:20N 37°27' E 005°26'3518.3
2014-Aug-20 15:26N 37°21' E 004°43'1618.4
2014-Aug-20 14:32N 37°18' E 004°23'2418.7
2014-Aug-20 13:15N 37°13' E 003°53'10918.6
2014-Aug-20 07:24N 36°55' E 001°39'1818.8
2014-Aug-20 06:27N 36°52' E 001°17'1819.8
2014-Aug-20 05:31N 36°48' E 000°54'1919.4
2014-Aug-20 04:32N 36°45' E 000°31'1919.5
2014-Aug-20 03:32N 36°42' E 000°07'2520.4
2014-Aug-20 02:18N 36°37' W 000°24'1520.0
2014-Aug-20 01:33N 36°35' W 000°43'2820.1
2014-Aug-20 00:08N 36°29' W 001°17'1219.8
2014-Aug-19 23:33N 36°27' W 001°32'5819.4
2014-Aug-19 20:33N 36°17' W 002°43'12019.8
2014-Aug-19 14:28N 35°59' W 005°10'8320.3
2014-Aug-19 10:22N 36°01' W 006°52'1619.8
2014-Aug-19 09:33N 36°05' W 007°12'2020.0
2014-Aug-19 08:33N 36°10' W 007°36'1919.3
2014-Aug-19 07:33N 36°16' W 007°59'2019.7
2014-Aug-19 06:33N 36°21' W 008°22'2019.7
2014-Aug-19 05:33N 36°27' W 008°45'2120.4
2014-Aug-19 04:32N 36°32' W 009°10'1919.0
2014-Aug-19 03:33N 36°44' W 009°28'2019.8
2014-Aug-19 02:33N 37°03' W 009°37'2020.3
2014-Aug-19 01:33N 37°22' W 009°43'4420.3
2014-Aug-18 23:25N 38°05' W 009°56'4019.9
2014-Aug-18 21:24N 38°44' W 010°07'1820.1
2014-Aug-18 20:30N 39°02' W 010°06'76517.3
2014-Aug-17 00:22N 50°15' W 001°33'6416.6
2014-Aug-16 20:31N 50°31' E 000°05'1718.3
2014-Aug-16 19:33N 50°35' E 000°31'1817.8
2014-Aug-16 18:33N 50°44' E 000°55'1717.1
2014-Aug-16 17:33N 50°54' E 001°17'1615.7
2014-Aug-16 16:34N 51°06' E 001°34'1615.5
2014-Aug-16 15:33N 51°18' E 001°50'1616.2
2014-Aug-16 14:33N 51°31' E 002°04'1817.9
2014-Aug-16 13:33N 51°45' E 002°23'2018.4
2014-Aug-16 12:27N 51°59' E 002°47'2017.6
2014-Aug-16 11:20N 52°03' E 003°18'1417.5
2014-Aug-16 10:33N 52°03' E 003°40'1111.3
2014-Aug-16 09:33N 52°01' E 003°58'5 4.5
2014-Aug-16 08:32N 51°58' E 004°04'0 0.0
2014-Aug-16 07:32N 51°58' E 004°04'0 0.0
2014-Aug-16 06:29N 51°58' E 004°04'0 0.0
2014-Aug-16 05:32N 51°58' E 004°04'  

Dump ship's entire track history